Du har inga inställningar för hoppväder.nu

Hoppväder.nu

Senast uppdaterat 19:50

UTC-tid

2020-09-20 kl. 17:50


Sol och måne

Solen går upp 6:42 och går ner 19:44 (beräknade cirkatider)
Nästa fullmåne blir om 11 dagar (2020-10-01)

METAR

ESSA (Arlanda, Stockholm)
(30 minuter sedan)
ESSA 201720Z 25009KT CAVOK 10/08 Q1016 NOSIG=



ESSD (Borlänge)
(30 minuter sedan)
ESSD 201720Z AUTO 23006KT 9999 BKN150/// 13/08 Q1015=



EFMA (Mariehamn)
(30 minuter sedan)
EFMA 201720Z AUTO 24004KT 190V300 CAVOK 11/09 Q1015=



ESOW (Västerås)
(30 minuter sedan)
ESOW 201720Z AUTO 21007KT 9999 NCD 13/10 Q1017=






TAF

ESSA (Arlanda, Stockholm)
(20 minuter sedan)
ESSA 201730Z 2018/2118 25009KT 9999 FEW020 PROB40 2022/2106 2000 BR PROB40 2108/2112 BKN008 TEMPO 2112/2118 25015G25KT=



ESSD (Borlänge)
ESSD



EFMA (Mariehamn)
(88 minuter sedan)
EFMA AMD 201622Z 2016/2024 25008KT CAVOK TEMPO 2016/2018 BKN012=



ESOW (Västerås)
ESOW





Kodnycklar till TAF och METAR






LHP

(Gryttjom är område se34e i Delområde 1)

Översikt

ÖVERSIKT FÖR OMRÅDE se3 UTFÄRDAD 201141

GÄLLANDE DEN 20 SEPTEMBER 2020 MELLAN 12 OCH 20 UTC


Väderöversikt

En västlig luftström råder över södra Sverige.

Sikt under 5 kilometer eller molnbas under 1000 fot
12-14UTC: I hela området
14-16UTC: Område se33


Måttlig eller svår isbildning
Väntas inte förekomma under perioden

Måttlig eller svår turbulens
Väntas inte förekomma under perioden

Delområde 1

PROGNOS FÖR OMRÅDE se34 UTFÄRDAD 201141
GÄLLANDE DEN 20 SEPTEMBER 2020 MELLAN 12 OCH 20 UTC

Måttlig eller svår turbulens
12-20UTC: I hela området: Väntas inte förekomma under perioden

Måttlig eller svår isbildning
12-20UTC: I hela området: Väntas inte förekomma under perioden

Sikt/Väder/Moln
12-14UTC: Område se34d: Sikt >8km. Molnbas 500ft - >2000ft.
Område se34b,se34f,se34e: Sikt >8km. Molnbas 1000ft - >2000ft.

12-20UTC: Område se34a,se34c: Sikt >8km. Molnbas >2000ft.

14-16UTC: Område se34b,se34f: Sikt >8km. Molnbas 1500ft - >2000ft.
Område se34d: Sikt >8km. Molnbas 1000ft - >2000ft.

14-20UTC: Område se34e: Sikt >8km. Molnbas >2000ft.

16-18UTC: Område se34b: Sikt >8km i dis. Molnbas 1500ft - >2000ft.

16-20UTC: Område se34f,se34d: Sikt >8km. Molnbas >2000ft.

18-20UTC: Område se34b: Sikt >8km. Molnbas >2000ft.


Molnöversida
12-20UTC: I hela området: Molnöversida > FL125.

CB/TCU Moln
12-20UTC: I hela området: Väntas inte förekomma under perioden

Nollgradersisoterm
12-20UTC: Noll grader FL080 - FL120.

Vind vid marken
12-14UTC: Område se34c: SV-V/4-13 knop, byar upp till 21 knop.
Område se34e: SV-V/6-12 knop, byar upp till 21 knop.
Område se34b: SV-V/6-14 knop, byar upp till 22 knop.
Område se34f: SV-V/6-11 knop, byar upp till 19 knop.
Område se34d: SV-V/5-10 knop, byar upp till 20 knop.
Område se34a: SV-V/6-16 knop, byar upp till 22 knop.

14-16UTC: Område se34d: SV-V/4-9 knop, byar upp till 18 knop.
Område se34e: SV-V/4-11 knop, byar upp till 19 knop.
Område se34c: SV-V/2-13 knop, byar upp till 19 knop.
Område se34b: SV-V/5-13 knop, byar upp till 21 knop.
Område se34f: SV-V/3-10 knop, byar upp till 19 knop.
Område se34a: SV-V/5-13 knop, byar upp till 18 knop.

16-18UTC: Område se34a: SV-V/3-14 knop, byar upp till 17 knop.
Område se34e: SV-V/3-9 knop, byar upp till 15 knop.
Område se34d: SV-V/1-6 knop, byar upp till 14 knop.
Område se34c: SV-V/0-11 knop, byar upp till 17 knop.
Område se34b: SV-V/3-13 knop, byar upp till 16 knop.
Område se34f: SV-V/2-9 knop, byar upp till 14 knop.

18-20UTC: Område se34c: SV-V/0-11 knop, byar upp till 19 knop.
Område se34a: SV-V/3-15 knop, byar upp till 18 knop.
Område se34d: SV-V/0-6 knop, byar upp till 15 knop.
Område se34f: SV-V/3-8 knop.
Område se34b: SV-V/3-15 knop, byar upp till 19 knop.
Område se34e: SV-V/2-9 knop.


Genomsnittlig vind och temperatur för området
2000ft:
12-14UTC: 260/16kt +9.
14-16UTC: 270/16kt +10.
16-18UTC: 280/21kt +11.
18-20UTC: 290/24kt +12.

FL50:
12-14UTC: 300/16kt +6.
14-16UTC: 300/16kt +7.
16-18UTC: 290/19kt +7.
18-20UTC: 290/20kt +7.

FL100:
12-14UTC: 290/29kt +0.
14-16UTC: 300/31kt +0.
16-18UTC: 300/34kt +0.
18-20UTC: 290/38kt +0.

Lägsta QNH
1013 hPa, lägst i norr.

OBS! endast utbredd måttlig eller svår isbildning och turbulens prognostiseras i LLF.
Avsaknad av isbildning och turbulens i prognosen utesluter inte förekomst av lätt isbildning och turbulens.
För indikation på lätt isbildning, var vänlig kontrollera om prognosen för molntopp ligger högre än nollgradersisotermen.
Förekomst av TCU eller CB medför alltid en risk för måttlig eller svår isbildning och turbulens även om det inte framgår explicit av prognosen.





Spotting

Hur fungerar spotthjälpen och Vindkartan?

Markvind är ca 2-5 m/s med byar på 8 m/s.
Vind på 600 m ca 11 m/s.
Vind på 1500 m ca 10 m/s.
Vind på 3000 m ca 17 m/s.
SE-GEE flyger ca 28 m/s över marken på finalen.
Du driver ca 787 m bakåt i frifall. (1049 m)
Lämplig spot är 18 sekunder eller 500 m efter gropen.
(27 s eller 750 m)
För små grupper eller ensamhoppare bör man vänta 5-8 sekunder mellan grupperna.
För större grupper bör man vänta 11-13 sekunder mellan grupperna.


Vindkartan

Senast uppdaterad 19:50




All data kommer från LFV.se